Mercer County Airport
KBLF : now visible

Airfield :











YOU CAN JOIN US ON...

 
LOGIN :

Register | Disclaimer

   EN    FR    IT 

 









Legend :    VFR   Marginal VFR   IFR   Intensive IFR   Very Intensive IFR
Visi :
Ceiling :
>= 8 km
>= 3000ft
5 to 8 km
1000 to 3000 ft
1500m to 5 km
500 to 1000 ft
800 to 1500m
200 to 500 ft
< 800m
< 200 ft
Symbols :   Thunderstorms  Fog  Heavy snow  Heavy precipitations  Wind > 20 kt






- Airport Elevation : 2857 ft
- IATA code : BLF


KBLF - Mercer County

CURRENT METAR :
  • 190152Z AUTO 27004KT 10SM FEW046 OVC060 04/M01 A2976 RMK AO2 SLP084 T00391006

EXPIRED METARs :
  • 190052Z AUTO 28004KT 10SM BKN050 BKN065 04/M01 A2976 RMK AO2 SLP085 T00391011
  • 182352Z AUTO 30003KT 10SM FEW050 OVC065 05/M02 A2975 RMK AO2 SLP081 60000 T00501017 10083 20050 53011

TAF KBLF
Valid from the 19 at 00:00 until the 20 at 00:00 UTC


182320Z 1900/1924 31004KT P6SM OVC040
FM190400 26004KT P6SM OVC020
FM190900 29005KT 2SM BR OVC006
TEMPO 1909/1912 1/2SM FG OVC003
FM191500 26005KT P6SM OVC011
FM191800 26006KT P6SM BKN050



MET'MAP, your aeronautical weather chart ! - Copyright ORBIFLY December 2007 - Disclaimer

ORBIFLY MET'MAP TEAM :

Programming & Development : Alexandra Zaïnal
Concept & Development : Baudouin d'Aumeries
Co-Development & Prog : Marc-Olivier Méhu
Technical & hardware support : Manuel Goepfert

Contact : metmap@orbifly.com




SOURCES & CREDITS :

   NOAA       Earth
Advisory